$GPRMC,000000.000,V,5200.599,N,01648.897,E,0.00,0.00,010070,,*1D $GPGGA,000000.000,5200.599,N,01648.897,E,0,00,0.0,0.000,M,0.0,M,,*62 $GPRMC,000000.000,V,5200.587,N,01648.913,E,0.00,0.00,010070,,*1F $GPGGA,000000.000,5200.587,N,01648.913,E,0,00,0.0,0.000,M,0.0,M,,*60 $GPRMC,000000.000,V,5200.574,N,01648.924,E,0.00,0.00,010070,,*17 $GPGGA,000000.000,5200.574,N,01648.924,E,0,00,0.0,0.000,M,0.0,M,,*68 $GPRMC,000000.000,V,5200.561,N,01648.930,E,0.00,0.00,010070,,*16 $GPGGA,000000.000,5200.561,N,01648.930,E,0,00,0.0,0.000,M,0.0,M,,*69 $GPRMC,000000.000,V,5200.551,N,01648.934,E,0.00,0.00,010070,,*11 $GPGGA,000000.000,5200.551,N,01648.934,E,0,00,0.0,0.000,M,0.0,M,,*6E $GPRMC,000000.000,V,5200.545,N,01648.948,E,0.00,0.00,010070,,*1F $GPGGA,000000.000,5200.545,N,01648.948,E,0,00,0.0,0.000,M,0.0,M,,*60 $GPRMC,000000.000,V,5200.549,N,01649.010,E,0.00,0.00,010070,,*16 $GPGGA,000000.000,5200.549,N,01649.010,E,0,00,0.0,0.000,M,0.0,M,,*69 $GPRMC,000000.000,V,5200.550,N,01649.068,E,0.00,0.00,010070,,*11 $GPGGA,000000.000,5200.550,N,01649.068,E,0,00,0.0,0.000,M,0.0,M,,*6E $GPRMC,000000.000,V,5200.549,N,01649.099,E,0.00,0.00,010070,,*17 $GPGGA,000000.000,5200.549,N,01649.099,E,0,00,0.0,0.000,M,0.0,M,,*68 $GPRMC,000000.000,V,5200.563,N,01649.147,E,0.00,0.00,010070,,*1D $GPGGA,000000.000,5200.563,N,01649.147,E,0,00,0.0,0.000,M,0.0,M,,*62 $GPRMC,000000.000,V,5200.579,N,01649.191,E,0.00,0.00,010070,,*1D $GPGGA,000000.000,5200.579,N,01649.191,E,0,00,0.0,0.000,M,0.0,M,,*62 $GPRMC,000000.000,V,5200.590,N,01649.233,E,0.00,0.00,010070,,*11 $GPGGA,000000.000,5200.590,N,01649.233,E,0,00,0.0,0.000,M,0.0,M,,*6E $GPRMC,000000.000,V,5200.615,N,01649.319,E,0.00,0.00,010070,,*16 $GPGGA,000000.000,5200.615,N,01649.319,E,0,00,0.0,0.000,M,0.0,M,,*69 $GPRMC,000000.000,V,5200.637,N,01649.400,E,0.00,0.00,010070,,*19 $GPGGA,000000.000,5200.637,N,01649.400,E,0,00,0.0,0.000,M,0.0,M,,*66 $GPRMC,000000.000,V,5200.678,N,01649.536,E,0.00,0.00,010070,,*16 $GPGGA,000000.000,5200.678,N,01649.536,E,0,00,0.0,0.000,M,0.0,M,,*69 $GPRMC,000000.000,V,5200.718,N,01649.525,E,0.00,0.00,010070,,*13 $GPGGA,000000.000,5200.718,N,01649.525,E,0,00,0.0,0.000,M,0.0,M,,*6C $GPRMC,000000.000,V,5200.745,N,01649.520,E,0.00,0.00,010070,,*1E $GPGGA,000000.000,5200.745,N,01649.520,E,0,00,0.0,0.000,M,0.0,M,,*61 $GPRMC,000000.000,V,5200.776,N,01649.518,E,0.00,0.00,010070,,*15 $GPGGA,000000.000,5200.776,N,01649.518,E,0,00,0.0,0.000,M,0.0,M,,*6A $GPRMC,000000.000,V,5200.806,N,01649.514,E,0.00,0.00,010070,,*11 $GPGGA,000000.000,5200.806,N,01649.514,E,0,00,0.0,0.000,M,0.0,M,,*6E $GPRMC,000000.000,V,5200.834,N,01649.514,E,0.00,0.00,010070,,*10 $GPGGA,000000.000,5200.834,N,01649.514,E,0,00,0.0,0.000,M,0.0,M,,*6F $GPRMC,000000.000,V,5200.851,N,01649.515,E,0.00,0.00,010070,,*12 $GPGGA,000000.000,5200.851,N,01649.515,E,0,00,0.0,0.000,M,0.0,M,,*6D $GPRMC,000000.000,V,5200.865,N,01649.520,E,0.00,0.00,010070,,*13 $GPGGA,000000.000,5200.865,N,01649.520,E,0,00,0.0,0.000,M,0.0,M,,*6C $GPRMC,000000.000,V,5200.873,N,01649.530,E,0.00,0.00,010070,,*15 $GPGGA,000000.000,5200.873,N,01649.530,E,0,00,0.0,0.000,M,0.0,M,,*6A $GPRMC,000000.000,V,5200.880,N,01649.530,E,0.00,0.00,010070,,*19 $GPGGA,000000.000,5200.880,N,01649.530,E,0,00,0.0,0.000,M,0.0,M,,*66 $GPRMC,000000.000,V,5200.885,N,01649.522,E,0.00,0.00,010070,,*1F $GPGGA,000000.000,5200.885,N,01649.522,E,0,00,0.0,0.000,M,0.0,M,,*60 $GPRMC,000000.000,V,5200.893,N,01649.511,E,0.00,0.00,010070,,*18 $GPGGA,000000.000,5200.893,N,01649.511,E,0,00,0.0,0.000,M,0.0,M,,*67 $GPRMC,000000.000,V,5200.902,N,01649.500,E,0.00,0.00,010070,,*11 $GPGGA,000000.000,5200.902,N,01649.500,E,0,00,0.0,0.000,M,0.0,M,,*6E $GPRMC,000000.000,V,5200.906,N,01649.495,E,0.00,0.00,010070,,*18 $GPGGA,000000.000,5200.906,N,01649.495,E,0,00,0.0,0.000,M,0.0,M,,*67 $GPRMC,000000.000,V,5200.915,N,01649.502,E,0.00,0.00,010070,,*15 $GPGGA,000000.000,5200.915,N,01649.502,E,0,00,0.0,0.000,M,0.0,M,,*6A $GPRMC,000000.000,V,5200.925,N,01649.510,E,0.00,0.00,010070,,*15 $GPGGA,000000.000,5200.925,N,01649.510,E,0,00,0.0,0.000,M,0.0,M,,*6A $GPRMC,000000.000,V,5200.933,N,01649.510,E,0.00,0.00,010070,,*12 $GPGGA,000000.000,5200.933,N,01649.510,E,0,00,0.0,0.000,M,0.0,M,,*6D $GPRMC,000000.000,V,5200.938,N,01649.510,E,0.00,0.00,010070,,*19 $GPGGA,000000.000,5200.938,N,01649.510,E,0,00,0.0,0.000,M,0.0,M,,*66 $GPRMC,000000.000,V,5200.947,N,01649.514,E,0.00,0.00,010070,,*15 $GPGGA,000000.000,5200.947,N,01649.514,E,0,00,0.0,0.000,M,0.0,M,,*6A $GPRMC,000000.000,V,5200.955,N,01649.519,E,0.00,0.00,010070,,*1B $GPGGA,000000.000,5200.955,N,01649.519,E,0,00,0.0,0.000,M,0.0,M,,*64 $GPRMC,000000.000,V,5200.964,N,01649.521,E,0.00,0.00,010070,,*12 $GPGGA,000000.000,5200.964,N,01649.521,E,0,00,0.0,0.000,M,0.0,M,,*6D $GPRMC,000000.000,V,5200.975,N,01649.524,E,0.00,0.00,010070,,*17 $GPGGA,000000.000,5200.975,N,01649.524,E,0,00,0.0,0.000,M,0.0,M,,*68 $GPRMC,000000.000,V,5200.986,N,01649.523,E,0.00,0.00,010070,,*1C $GPGGA,000000.000,5200.986,N,01649.523,E,0,00,0.0,0.000,M,0.0,M,,*63 $GPRMC,000000.000,V,5200.996,N,01649.524,E,0.00,0.00,010070,,*1A $GPGGA,000000.000,5200.996,N,01649.524,E,0,00,0.0,0.000,M,0.0,M,,*65 $GPRMC,000000.000,V,5201.005,N,01649.524,E,0.00,0.00,010070,,*18 $GPGGA,000000.000,5201.005,N,01649.524,E,0,00,0.0,0.000,M,0.0,M,,*67 $GPRMC,000000.000,V,5201.022,N,01649.524,E,0.00,0.00,010070,,*1D $GPGGA,000000.000,5201.022,N,01649.524,E,0,00,0.0,0.000,M,0.0,M,,*62 $GPRMC,000000.000,V,5201.031,N,01649.521,E,0.00,0.00,010070,,*1A $GPGGA,000000.000,5201.031,N,01649.521,E,0,00,0.0,0.000,M,0.0,M,,*65 $GPRMC,000000.000,V,5201.041,N,01649.523,E,0.00,0.00,010070,,*1F $GPGGA,000000.000,5201.041,N,01649.523,E,0,00,0.0,0.000,M,0.0,M,,*60 $GPRMC,000000.000,V,5201.049,N,01649.525,E,0.00,0.00,010070,,*11 $GPGGA,000000.000,5201.049,N,01649.525,E,0,00,0.0,0.000,M,0.0,M,,*6E $GPRMC,000000.000,V,5201.060,N,01649.525,E,0.00,0.00,010070,,*1A $GPGGA,000000.000,5201.060,N,01649.525,E,0,00,0.0,0.000,M,0.0,M,,*65 $GPRMC,000000.000,V,5201.070,N,01649.525,E,0.00,0.00,010070,,*1B $GPGGA,000000.000,5201.070,N,01649.525,E,0,00,0.0,0.000,M,0.0,M,,*64 $GPRMC,000000.000,V,5201.081,N,01649.521,E,0.00,0.00,010070,,*11 $GPGGA,000000.000,5201.081,N,01649.521,E,0,00,0.0,0.000,M,0.0,M,,*6E $GPRMC,000000.000,V,5201.093,N,01649.521,E,0.00,0.00,010070,,*12 $GPGGA,000000.000,5201.093,N,01649.521,E,0,00,0.0,0.000,M,0.0,M,,*6D $GPRMC,000000.000,V,5201.103,N,01649.515,E,0.00,0.00,010070,,*1D $GPGGA,000000.000,5201.103,N,01649.515,E,0,00,0.0,0.000,M,0.0,M,,*62 $GPRMC,000000.000,V,5201.116,N,01649.512,E,0.00,0.00,010070,,*1E $GPGGA,000000.000,5201.116,N,01649.512,E,0,00,0.0,0.000,M,0.0,M,,*61 $GPRMC,000000.000,V,5201.128,N,01649.505,E,0.00,0.00,010070,,*15 $GPGGA,000000.000,5201.128,N,01649.505,E,0,00,0.0,0.000,M,0.0,M,,*6A $GPRMC,000000.000,V,5201.142,N,01649.499,E,0.00,0.00,010070,,*1D $GPGGA,000000.000,5201.142,N,01649.499,E,0,00,0.0,0.000,M,0.0,M,,*62 $GPRMC,000000.000,V,5201.161,N,01649.489,E,0.00,0.00,010070,,*1D $GPGGA,000000.000,5201.161,N,01649.489,E,0,00,0.0,0.000,M,0.0,M,,*62 $GPRMC,000000.000,V,5201.176,N,01649.484,E,0.00,0.00,010070,,*16 $GPGGA,000000.000,5201.176,N,01649.484,E,0,00,0.0,0.000,M,0.0,M,,*69 $GPRMC,000000.000,V,5201.192,N,01649.480,E,0.00,0.00,010070,,*18 $GPGGA,000000.000,5201.192,N,01649.480,E,0,00,0.0,0.000,M,0.0,M,,*67 $GPRMC,000000.000,V,5201.211,N,01649.475,E,0.00,0.00,010070,,*1A $GPGGA,000000.000,5201.211,N,01649.475,E,0,00,0.0,0.000,M,0.0,M,,*65 $GPRMC,000000.000,V,5201.230,N,01649.472,E,0.00,0.00,010070,,*1E $GPGGA,000000.000,5201.230,N,01649.472,E,0,00,0.0,0.000,M,0.0,M,,*61 $GPRMC,000000.000,V,5201.244,N,01649.468,E,0.00,0.00,010070,,*16 $GPGGA,000000.000,5201.244,N,01649.468,E,0,00,0.0,0.000,M,0.0,M,,*69 $GPRMC,000000.000,V,5201.259,N,01649.465,E,0.00,0.00,010070,,*17 $GPGGA,000000.000,5201.259,N,01649.465,E,0,00,0.0,0.000,M,0.0,M,,*68 $GPRMC,000000.000,V,5201.277,N,01649.460,E,0.00,0.00,010070,,*1E $GPGGA,000000.000,5201.277,N,01649.460,E,0,00,0.0,0.000,M,0.0,M,,*61 $GPRMC,000000.000,V,5201.289,N,01649.456,E,0.00,0.00,010070,,*1A $GPGGA,000000.000,5201.289,N,01649.456,E,0,00,0.0,0.000,M,0.0,M,,*65 $GPRMC,000000.000,V,5201.302,N,01649.454,E,0.00,0.00,010070,,*1A $GPGGA,000000.000,5201.302,N,01649.454,E,0,00,0.0,0.000,M,0.0,M,,*65 $GPRMC,000000.000,V,5201.316,N,01649.451,E,0.00,0.00,010070,,*1A $GPGGA,000000.000,5201.316,N,01649.451,E,0,00,0.0,0.000,M,0.0,M,,*65 $GPRMC,000000.000,V,5201.333,N,01649.450,E,0.00,0.00,010070,,*1C $GPGGA,000000.000,5201.333,N,01649.450,E,0,00,0.0,0.000,M,0.0,M,,*63 $GPRMC,000000.000,V,5201.352,N,01649.449,E,0.00,0.00,010070,,*13 $GPGGA,000000.000,5201.352,N,01649.449,E,0,00,0.0,0.000,M,0.0,M,,*6C $GPRMC,000000.000,V,5201.366,N,01649.453,E,0.00,0.00,010070,,*1F $GPGGA,000000.000,5201.366,N,01649.453,E,0,00,0.0,0.000,M,0.0,M,,*60 $GPRMC,000000.000,V,5201.381,N,01649.457,E,0.00,0.00,010070,,*12 $GPGGA,000000.000,5201.381,N,01649.457,E,0,00,0.0,0.000,M,0.0,M,,*6D $GPRMC,000000.000,V,5201.394,N,01649.463,E,0.00,0.00,010070,,*11 $GPGGA,000000.000,5201.394,N,01649.463,E,0,00,0.0,0.000,M,0.0,M,,*6E $GPRMC,000000.000,V,5201.414,N,01649.477,E,0.00,0.00,010070,,*1B $GPGGA,000000.000,5201.414,N,01649.477,E,0,00,0.0,0.000,M,0.0,M,,*64 $GPRMC,000000.000,V,5201.428,N,01649.485,E,0.00,0.00,010070,,*19 $GPGGA,000000.000,5201.428,N,01649.485,E,0,00,0.0,0.000,M,0.0,M,,*66 $GPRMC,000000.000,V,5201.444,N,01649.496,E,0.00,0.00,010070,,*11 $GPGGA,000000.000,5201.444,N,01649.496,E,0,00,0.0,0.000,M,0.0,M,,*6E $GPRMC,000000.000,V,5201.458,N,01649.505,E,0.00,0.00,010070,,*17 $GPGGA,000000.000,5201.458,N,01649.505,E,0,00,0.0,0.000,M,0.0,M,,*68 $GPRMC,000000.000,V,5201.470,N,01649.514,E,0.00,0.00,010070,,*1D $GPGGA,000000.000,5201.470,N,01649.514,E,0,00,0.0,0.000,M,0.0,M,,*62 $GPRMC,000000.000,V,5201.480,N,01649.520,E,0.00,0.00,010070,,*15 $GPGGA,000000.000,5201.480,N,01649.520,E,0,00,0.0,0.000,M,0.0,M,,*6A $GPRMC,000000.000,V,5201.492,N,01649.528,E,0.00,0.00,010070,,*1E $GPGGA,000000.000,5201.492,N,01649.528,E,0,00,0.0,0.000,M,0.0,M,,*61 $GPRMC,000000.000,V,5201.506,N,01649.538,E,0.00,0.00,010070,,*13 $GPGGA,000000.000,5201.506,N,01649.538,E,0,00,0.0,0.000,M,0.0,M,,*6C $GPRMC,000000.000,V,5201.532,N,01649.550,E,0.00,0.00,010070,,*1A $GPGGA,000000.000,5201.532,N,01649.550,E,0,00,0.0,0.000,M,0.0,M,,*65 $GPRMC,000000.000,V,5201.557,N,01649.567,E,0.00,0.00,010070,,*1D $GPGGA,000000.000,5201.557,N,01649.567,E,0,00,0.0,0.000,M,0.0,M,,*62 $GPRMC,000000.000,V,5201.581,N,01649.579,E,0.00,0.00,010070,,*19 $GPGGA,000000.000,5201.581,N,01649.579,E,0,00,0.0,0.000,M,0.0,M,,*66 $GPRMC,000000.000,V,5201.602,N,01649.590,E,0.00,0.00,010070,,*16 $GPGGA,000000.000,5201.602,N,01649.590,E,0,00,0.0,0.000,M,0.0,M,,*69 $GPRMC,000000.000,V,5201.619,N,01649.603,E,0.00,0.00,010070,,*15 $GPGGA,000000.000,5201.619,N,01649.603,E,0,00,0.0,0.000,M,0.0,M,,*6A $GPRMC,000000.000,V,5201.638,N,01649.613,E,0.00,0.00,010070,,*17 $GPGGA,000000.000,5201.638,N,01649.613,E,0,00,0.0,0.000,M,0.0,M,,*68 $GPRMC,000000.000,V,5201.757,N,01649.682,E,0.00,0.00,010070,,*17 $GPGGA,000000.000,5201.757,N,01649.682,E,0,00,0.0,0.000,M,0.0,M,,*68 $GPRMC,000000.000,V,5201.886,N,01649.764,E,0.00,0.00,010070,,*1D $GPGGA,000000.000,5201.886,N,01649.764,E,0,00,0.0,0.000,M,0.0,M,,*62 $GPRMC,000000.000,V,5201.947,N,01649.799,E,0.00,0.00,010070,,*13 $GPGGA,000000.000,5201.947,N,01649.799,E,0,00,0.0,0.000,M,0.0,M,,*6C $GPRMC,000000.000,V,5202.005,N,01649.832,E,0.00,0.00,010070,,*11 $GPGGA,000000.000,5202.005,N,01649.832,E,0,00,0.0,0.000,M,0.0,M,,*6E $GPRMC,000000.000,V,5202.143,N,01649.915,E,0.00,0.00,010070,,*16 $GPGGA,000000.000,5202.143,N,01649.915,E,0,00,0.0,0.000,M,0.0,M,,*69 $GPRMC,000000.000,V,5202.216,N,01649.959,E,0.00,0.00,010070,,*1D $GPGGA,000000.000,5202.216,N,01649.959,E,0,00,0.0,0.000,M,0.0,M,,*62 $GPRMC,000000.000,V,5202.328,N,01650.027,E,0.00,0.00,010070,,*19 $GPGGA,000000.000,5202.328,N,01650.027,E,0,00,0.0,0.000,M,0.0,M,,*66 $GPRMC,000000.000,V,5202.394,N,01650.063,E,0.00,0.00,010070,,*1E $GPGGA,000000.000,5202.394,N,01650.063,E,0,00,0.0,0.000,M,0.0,M,,*61 $GPRMC,000000.000,V,5202.417,N,01650.079,E,0.00,0.00,010070,,*19 $GPGGA,000000.000,5202.417,N,01650.079,E,0,00,0.0,0.000,M,0.0,M,,*66 $GPRMC,000000.000,V,5202.421,N,01650.087,E,0.00,0.00,010070,,*1D $GPGGA,000000.000,5202.421,N,01650.087,E,0,00,0.0,0.000,M,0.0,M,,*62 $GPRMC,000000.000,V,5202.423,N,01650.114,E,0.00,0.00,010070,,*14 $GPGGA,000000.000,5202.423,N,01650.114,E,0,00,0.0,0.000,M,0.0,M,,*6B $GPRMC,000000.000,V,5202.424,N,01650.161,E,0.00,0.00,010070,,*11 $GPGGA,000000.000,5202.424,N,01650.161,E,0,00,0.0,0.000,M,0.0,M,,*6E $GPRMC,000000.000,V,5202.422,N,01650.206,E,0.00,0.00,010070,,*15 $GPGGA,000000.000,5202.422,N,01650.206,E,0,00,0.0,0.000,M,0.0,M,,*6A $GPRMC,000000.000,V,5202.421,N,01650.237,E,0.00,0.00,010070,,*14 $GPGGA,000000.000,5202.421,N,01650.237,E,0,00,0.0,0.000,M,0.0,M,,*6B $GPRMC,000000.000,V,5202.417,N,01650.268,E,0.00,0.00,010070,,*1B $GPGGA,000000.000,5202.417,N,01650.268,E,0,00,0.0,0.000,M,0.0,M,,*64 $GPRMC,000000.000,V,5202.412,N,01650.304,E,0.00,0.00,010070,,*15 $GPGGA,000000.000,5202.412,N,01650.304,E,0,00,0.0,0.000,M,0.0,M,,*6A $GPRMC,000000.000,V,5202.409,N,01650.336,E,0.00,0.00,010070,,*1E $GPGGA,000000.000,5202.409,N,01650.336,E,0,00,0.0,0.000,M,0.0,M,,*61 $GPRMC,000000.000,V,5202.420,N,01650.345,E,0.00,0.00,010070,,*11 $GPGGA,000000.000,5202.420,N,01650.345,E,0,00,0.0,0.000,M,0.0,M,,*6E $GPRMC,000000.000,V,5202.483,N,01650.386,E,0.00,0.00,010070,,*17 $GPGGA,000000.000,5202.483,N,01650.386,E,0,00,0.0,0.000,M,0.0,M,,*68 $GPRMC,000000.000,V,5202.489,N,01650.396,E,0.00,0.00,010070,,*1C $GPGGA,000000.000,5202.489,N,01650.396,E,0,00,0.0,0.000,M,0.0,M,,*63 $GPRMC,000000.000,V,5202.501,N,01650.362,E,0.00,0.00,010070,,*16 $GPGGA,000000.000,5202.501,N,01650.362,E,0,00,0.0,0.000,M,0.0,M,,*69 $GPRMC,000000.000,V,5202.646,N,01650.445,E,0.00,0.00,010070,,*14 $GPGGA,000000.000,5202.646,N,01650.445,E,0,00,0.0,0.000,M,0.0,M,,*6B $GPRMC,000000.000,V,5202.765,N,01650.580,E,0.00,0.00,010070,,*1C $GPGGA,000000.000,5202.765,N,01650.580,E,0,00,0.0,0.000,M,0.0,M,,*63 $GPRMC,000000.000,V,5202.712,N,01650.693,E,0.00,0.00,010070,,*1D $GPGGA,000000.000,5202.712,N,01650.693,E,0,00,0.0,0.000,M,0.0,M,,*62 $GPRMC,000000.000,V,5202.706,N,01650.711,E,0.00,0.00,010070,,*13 $GPGGA,000000.000,5202.706,N,01650.711,E,0,00,0.0,0.000,M,0.0,M,,*6C $GPRMC,000000.000,V,5202.718,N,01650.728,E,0.00,0.00,010070,,*16 $GPGGA,000000.000,5202.718,N,01650.728,E,0,00,0.0,0.000,M,0.0,M,,*69 $GPRMC,000000.000,V,5202.726,N,01650.737,E,0.00,0.00,010070,,*15 $GPGGA,000000.000,5202.726,N,01650.737,E,0,00,0.0,0.000,M,0.0,M,,*6A $GPRMC,000000.000,V,5202.735,N,01650.748,E,0.00,0.00,010070,,*1F $GPGGA,000000.000,5202.735,N,01650.748,E,0,00,0.0,0.000,M,0.0,M,,*60 $GPRMC,000000.000,V,5202.746,N,01650.752,E,0.00,0.00,010070,,*10 $GPGGA,000000.000,5202.746,N,01650.752,E,0,00,0.0,0.000,M,0.0,M,,*6F $GPRMC,000000.000,V,5202.763,N,01650.758,E,0.00,0.00,010070,,*1D $GPGGA,000000.000,5202.763,N,01650.758,E,0,00,0.0,0.000,M,0.0,M,,*62 $GPRMC,000000.000,V,5202.786,N,01650.763,E,0.00,0.00,010070,,*1E $GPGGA,000000.000,5202.786,N,01650.763,E,0,00,0.0,0.000,M,0.0,M,,*61 $GPRMC,000000.000,V,5202.809,N,01650.774,E,0.00,0.00,010070,,*10 $GPGGA,000000.000,5202.809,N,01650.774,E,0,00,0.0,0.000,M,0.0,M,,*6F $GPRMC,000000.000,V,5202.828,N,01650.781,E,0.00,0.00,010070,,*19 $GPGGA,000000.000,5202.828,N,01650.781,E,0,00,0.0,0.000,M,0.0,M,,*66 $GPRMC,000000.000,V,5202.848,N,01650.794,E,0.00,0.00,010070,,*1B $GPGGA,000000.000,5202.848,N,01650.794,E,0,00,0.0,0.000,M,0.0,M,,*64 $GPRMC,000000.000,V,5202.748,N,01651.111,E,0.00,0.00,010070,,*1E $GPGGA,000000.000,5202.748,N,01651.111,E,0,00,0.0,0.000,M,0.0,M,,*61 $GPRMC,000000.000,V,5202.562,N,01651.706,E,0.00,0.00,010070,,*14 $GPGGA,000000.000,5202.562,N,01651.706,E,0,00,0.0,0.000,M,0.0,M,,*6B $GPRMC,000000.000,V,5202.546,N,01651.749,E,0.00,0.00,010070,,*19 $GPGGA,000000.000,5202.546,N,01651.749,E,0,00,0.0,0.000,M,0.0,M,,*66 $GPRMC,000000.000,V,5202.528,N,01651.804,E,0.00,0.00,010070,,*17 $GPGGA,000000.000,5202.528,N,01651.804,E,0,00,0.0,0.000,M,0.0,M,,*68 $GPRMC,000000.000,V,5202.508,N,01651.865,E,0.00,0.00,010070,,*12 $GPGGA,000000.000,5202.508,N,01651.865,E,0,00,0.0,0.000,M,0.0,M,,*6D $GPRMC,000000.000,V,5202.474,N,01651.973,E,0.00,0.00,010070,,*1E $GPGGA,000000.000,5202.474,N,01651.973,E,0,00,0.0,0.000,M,0.0,M,,*61 $GPRMC,000000.000,V,5202.564,N,01652.145,E,0.00,0.00,010070,,*10 $GPGGA,000000.000,5202.564,N,01652.145,E,0,00,0.0,0.000,M,0.0,M,,*6F $GPRMC,000000.000,V,5202.564,N,01652.155,E,0.00,0.00,010070,,*11 $GPGGA,000000.000,5202.564,N,01652.155,E,0,00,0.0,0.000,M,0.0,M,,*6E $GPRMC,000000.000,V,5202.556,N,01652.175,E,0.00,0.00,010070,,*12 $GPGGA,000000.000,5202.556,N,01652.175,E,0,00,0.0,0.000,M,0.0,M,,*6D $GPRMC,000000.000,V,5202.517,N,01652.275,E,0.00,0.00,010070,,*14 $GPGGA,000000.000,5202.517,N,01652.275,E,0,00,0.0,0.000,M,0.0,M,,*6B $GPRMC,000000.000,V,5202.518,N,01652.285,E,0.00,0.00,010070,,*14 $GPGGA,000000.000,5202.518,N,01652.285,E,0,00,0.0,0.000,M,0.0,M,,*6B